Time;durP1;ratioP1;P1;durP2;ratioP2;P2;SDS_P1;SDS_P2;PMS_P1;PMS_P2;Temp;Humidity;BMP_temperature;BMP_pressure;BME280_temperature;BME280_humidity;BME280_pressure;Samples;Min_cycle;Max_cycle;Signal;HPM_P1;HPM_P2
2021/01/16 00:00:20;;;;;;;40.78;17.30;;;;;;;0.93;99.64;102490.53;5100368;28;20070;-72
2021/01/16 00:02:46;;;;;;;34.70;15.85;;;;;;;0.92;99.58;102483.53;5040729;28;20054;-72
2021/01/16 00:05:15;;;;;;;37.55;16.38;;;;;;;0.91;99.60;102494.97;5063397;28;20435;-72
2021/01/16 00:07:45;;;;;;;36.75;15.30;;;;;;;0.92;99.69;102489.69;5069230;28;20039;-72
2021/01/16 00:10:13;;;;;;;39.90;17.25;;;;;;;0.93;99.54;102491.44;5058255;28;20085;-72
2021/01/16 00:12:39;;;;;;;37.85;16.40;;;;;;;0.93;99.31;102485.25;5065763;28;20471;-72
2021/01/16 00:15:05;;;;;;;36.38;17.63;;;;;;;0.90;99.15;102485.25;5072371;28;20043;-72
2021/01/16 00:17:31;;;;;;;37.28;16.90;;;;;;;0.93;99.09;102479.97;5073747;28;20032;-72
2021/01/16 00:19:56;;;;;;;35.63;16.60;;;;;;;0.94;98.78;102489.69;5058282;28;20020;-72
2021/01/16 00:22:22;;;;;;;33.80;15.95;;;;;;;0.92;98.63;102483.53;5060119;28;20426;-72
2021/01/16 00:24:47;;;;;;;30.00;15.18;;;;;;;0.90;98.48;102482.63;5061358;28;20024;-72
2021/01/16 00:27:12;;;;;;;33.58;15.38;;;;;;;0.89;98.60;102483.50;5064470;28;20483;-72
2021/01/16 00:29:38;;;;;;;37.00;16.48;;;;;;;0.91;98.55;102481.75;5052817;28;20068;-72
2021/01/16 00:32:04;;;;;;;33.05;16.13;;;;;;;0.90;98.73;102479.97;5070842;28;20036;-72
2021/01/16 00:34:29;;;;;;;36.45;16.63;;;;;;;0.90;98.80;102477.34;5064382;28;20036;-72
2021/01/16 00:36:54;;;;;;;37.67;17.02;;;;;;;0.88;98.88;102476.44;5089562;28;20499;-72
2021/01/16 00:39:20;;;;;;;35.58;16.50;;;;;;;0.91;98.90;102472.06;5063913;28;20028;-72
2021/01/16 00:41:45;;;;;;;37.47;16.95;;;;;;;0.92;98.83;102467.66;5066257;28;20879;-72
2021/01/16 00:44:11;;;;;;;42.05;17.38;;;;;;;0.93;98.88;102469.41;5062128;28;20037;-72
2021/01/16 00:46:36;;;;;;;38.90;17.27;;;;;;;0.89;99.06;102457.94;5061681;28;20036;-72
2021/01/16 00:49:01;;;;;;;40.78;17.85;;;;;;;0.89;99.30;102447.38;5063602;28;20034;-72
2021/01/16 00:51:27;;;;;;;40.50;16.67;;;;;;;0.92;99.41;102467.66;5070039;28;20085;-72
2021/01/16 00:53:53;;;;;;;35.80;16.98;;;;;;;0.88;99.96;102472.03;5078237;28;20052;-72
2021/01/16 00:56:18;;;;;;;39.67;17.00;;;;;;;0.89;99.97;102472.91;5065133;28;20024;-72
2021/01/16 00:59:03;;;;;;;40.53;18.48;;;;;;;0.89;100.00;102463.22;5064636;28;20123;-72
2021/01/16 01:01:56;;;;;;;39.30;17.63;;;;;;;0.89;100.00;102462.34;5059688;28;20037;-72
2021/01/16 01:04:21;;;;;;;37.67;17.48;;;;;;;0.89;100.00;102459.69;5076875;28;20029;-72
2021/01/16 01:06:47;;;;;;;45.53;17.52;;;;;;;0.90;100.00;102458.81;5061836;28;20060;-72
2021/01/16 01:09:12;;;;;;;40.42;17.50;;;;;;;0.89;100.00;102462.34;5076955;28;20146;-72
2021/01/16 01:11:38;;;;;;;38.35;18.23;;;;;;;0.89;100.00;102457.06;5070357;28;21739;-72
2021/01/16 01:14:03;;;;;;;39.90;18.23;;;;;;;0.88;100.00;102461.47;5068744;28;20107;-72
2021/01/16 01:16:28;;;;;;;37.25;16.35;;;;;;;0.88;100.00;102450.88;5069949;28;20078;-72
2021/01/16 01:18:54;;;;;;;35.58;16.90;;;;;;;0.88;100.00;102452.66;5061972;28;20028;-72
2021/01/16 01:21:22;;;;;;;40.88;16.63;;;;;;;0.89;100.00;102454.41;5066819;28;20452;-72
2021/01/16 01:23:48;;;;;;;37.72;17.58;;;;;;;0.88;100.00;102452.66;5061638;28;20032;-72
2021/01/16 01:26:13;;;;;;;37.97;18.25;;;;;;;0.85;100.00;102455.28;5065499;28;20028;-72
2021/01/16 01:28:39;;;;;;;41.30;18.88;;;;;;;0.85;100.00;102455.28;5060341;28;20130;-72
2021/01/16 01:31:04;;;;;;;34.85;16.45;;;;;;;0.86;100.00;102451.78;5070391;28;20044;-72
2021/01/16 01:33:29;;;;;;;38.95;17.00;;;;;;;0.86;100.00;102454.41;5063688;28;20540;-72
2021/01/16 01:35:55;;;;;;;42.20;18.30;;;;;;;0.85;100.00;102452.66;5073691;28;20054;-72
2021/01/16 01:38:20;;;;;;;40.38;17.77;;;;;;;0.85;100.00;102457.94;5071438;28;20029;-72
2021/01/16 01:40:46;;;;;;;40.70;18.08;;;;;;;0.84;100.00;102459.69;5069642;28;20469;-72
2021/01/16 01:43:12;;;;;;;35.35;17.17;;;;;;;0.84;100.00;102449.13;5068505;28;20321;-72
2021/01/16 01:45:38;;;;;;;42.70;18.40;;;;;;;0.85;100.00;102439.44;5065951;28;20056;-72
2021/01/16 01:48:04;;;;;;;39.35;17.77;;;;;;;0.83;100.00;102444.72;5066177;28;20055;-72
2021/01/16 01:50:30;;;;;;;37.90;17.70;;;;;;;0.84;100.00;102442.94;5069124;28;20065;-72
2021/01/16 01:52:56;;;;;;;38.45;18.42;;;;;;;0.84;100.00;102442.94;5063364;28;20463;-72
2021/01/16 01:55:23;;;;;;;38.28;17.63;;;;;;;0.84;100.00;102448.22;5072589;28;20051;-72
2021/01/16 01:57:56;;;;;;;37.05;17.50;;;;;;;0.84;100.00;102448.22;5064971;28;20029;-72
2021/01/16 02:00:22;;;;;;;36.58;17.73;;;;;;;0.84;100.00;102442.94;5067205;28;20072;-72
2021/01/16 02:02:49;;;;;;;43.80;19.27;;;;;;;0.87;100.00;102437.66;5067519;28;20059;-72
2021/01/16 02:05:15;;;;;;;39.00;17.92;;;;;;;0.84;100.00;102438.53;5064375;28;20029;-72
2021/01/16 02:07:41;;;;;;;41.50;18.25;;;;;;;0.80;100.00;102435.00;5067448;28;20021;-72
2021/01/16 02:10:11;;;;;;;38.17;17.40;;;;;;;0.80;100.00;102432.34;5068085;28;20039;-72
2021/01/16 02:12:43;;;;;;;38.50;16.90;;;;;;;0.80;100.00;102420.94;5048472;28;20033;-72
2021/01/16 02:15:30;;;;;;;38.65;16.67;;;;;;;0.80;100.00;102418.28;5068788;28;20114;-72
2021/01/16 02:18:02;;;;;;;40.08;18.73;;;;;;;0.80;100.00;102421.78;5060030;28;20139;-72
2021/01/16 02:20:34;;;;;;;35.72;17.50;;;;;;;0.77;100.00;102421.78;5060267;28;20112;-72
2021/01/16 02:23:12;;;;;;;34.25;16.63;;;;;;;0.76;100.00;102420.00;5067459;28;20036;-72
2021/01/16 02:25:40;;;;;;;40.03;17.85;;;;;;;0.78;100.00;102427.97;5068969;28;20394;-72
2021/01/16 02:28:17;;;;;;;41.92;18.65;;;;;;;0.77;100.00;102410.31;5059059;28;20047;-72
2021/01/16 02:30:44;;;;;;;37.38;17.77;;;;;;;0.75;100.00;102420.88;5067388;28;20033;-72
2021/01/16 02:33:17;;;;;;;38.00;16.70;;;;;;;0.75;100.00;102412.97;5069214;28;20067;-72
2021/01/16 02:36:21;;;;;;;34.53;16.05;;;;;;;0.75;100.00;102406.78;5063274;28;20033;-72
2021/01/16 02:38:59;;;;;;;39.03;17.88;;;;;;;0.75;100.00;102402.38;5013082;28;20045;-72
2021/01/16 02:41:49;;;;;;;39.05;18.25;;;;;;;0.76;100.00;102393.59;5059776;28;20040;-72
2021/01/16 02:44:22;;;;;;;40.33;17.98;;;;;;;0.77;100.00;102398.00;5067996;28;20020;-72
2021/01/16 02:46:50;;;;;;;41.35;18.67;;;;;;;0.77;100.00;102390.06;5063514;28;20039;-72
2021/01/16 02:49:40;;;;;;;40.60;17.85;;;;;;;0.77;100.00;102392.72;5069283;28;20731;-72
2021/01/16 02:52:18;;;;;;;44.85;19.23;;;;;;;0.77;100.00;102386.53;5061295;28;20039;-72
2021/01/16 02:54:44;;;;;;;42.65;19.02;;;;;;;0.77;100.00;102392.72;5059947;28;20120;-72
2021/01/16 02:57:11;;;;;;;41.05;17.95;;;;;;;0.77;100.00;102390.06;5059984;28;20555;-72
2021/01/16 02:59:41;;;;;;;38.78;17.63;;;;;;;0.78;100.00;102388.31;5065421;28;20039;-72
2021/01/16 03:02:08;;;;;;;38.35;17.30;;;;;;;0.79;100.00;102392.72;5059913;28;20037;-72
2021/01/16 03:04:35;;;;;;;43.22;19.95;;;;;;;0.85;100.00;102391.84;5053242;28;20698;-72
2021/01/16 03:07:02;;;;;;;53.03;20.55;;;;;;;0.80;100.00;102394.50;5071045;28;20037;-72
2021/01/16 03:09:29;;;;;;;44.33;19.92;;;;;;;0.78;100.00;102391.84;5061574;28;20036;-72
2021/01/16 03:11:58;;;;;;;40.35;18.77;;;;;;;0.77;100.00;102395.34;5063550;28;20108;-72
2021/01/16 03:14:26;;;;;;;41.83;18.27;;;;;;;0.75;100.00;102393.56;5068397;28;20482;-72
2021/01/16 03:17:09;;;;;;;42.88;18.75;;;;;;;0.76;100.00;102393.59;5058170;28;20466;-72
2021/01/16 03:19:36;;;;;;;40.88;18.08;;;;;;;0.77;100.00;102397.09;5058297;28;20039;-72
2021/01/16 03:22:24;;;;;;;45.05;18.17;;;;;;;0.77;100.00;102395.34;5057087;28;20033;-72
2021/01/16 03:24:55;;;;;;;41.00;18.92;;;;;;;0.78;100.00;102394.47;5067290;28;20471;-72
2021/01/16 03:27:21;;;;;;;38.25;17.88;;;;;;;0.77;100.00;102400.63;5083900;28;20074;-72
2021/01/16 03:29:47;;;;;;;41.13;17.55;;;;;;;0.78;100.00;102390.94;5058578;28;20032;-72
2021/01/16 03:32:13;;;;;;;40.95;17.25;;;;;;;0.78;100.00;102389.19;5060669;28;20644;-72
2021/01/16 03:34:41;;;;;;;40.00;18.58;;;;;;;0.78;100.00;102383.91;5072703;28;20032;-72
2021/01/16 03:37:07;;;;;;;41.25;19.02;;;;;;;0.80;100.00;102386.56;5060579;28;20565;-72
2021/01/16 03:39:33;;;;;;;39.53;18.20;;;;;;;0.79;100.00;102387.44;5059021;28;20037;-72
2021/01/16 03:41:59;;;;;;;37.92;18.10;;;;;;;0.78;100.00;102381.25;5062144;28;20061;-72
2021/01/16 03:44:25;;;;;;;40.55;18.17;;;;;;;0.79;100.00;102377.75;5071027;28;20051;-72
2021/01/16 03:46:50;;;;;;;38.28;17.20;;;;;;;0.80;100.00;102382.13;5056003;28;20093;-72
2021/01/16 03:49:16;;;;;;;42.45;17.60;;;;;;;0.80;100.00;102373.34;5063171;28;20043;-72
2021/01/16 03:51:42;;;;;;;39.10;18.30;;;;;;;0.80;100.00;102384.78;5075985;28;20029;-72
2021/01/16 03:54:08;;;;;;;38.80;16.50;;;;;;;0.79;100.00;102377.75;5057491;28;20041;-72
2021/01/16 03:56:34;;;;;;;45.05;18.15;;;;;;;0.79;100.00;102377.75;5062972;28;20028;-72
2021/01/16 03:58:59;;;;;;;34.95;17.10;;;;;;;0.79;100.00;102377.75;5061564;28;20028;-72
2021/01/16 04:01:24;;;;;;;43.00;18.77;;;;;;;0.78;100.00;102370.69;5060641;28;20104;-72
2021/01/16 04:03:50;;;;;;;39.75;17.10;;;;;;;0.81;100.00;102370.69;5058934;28;20402;-72
2021/01/16 04:06:17;;;;;;;32.85;15.40;;;;;;;0.75;100.00;102368.03;5065554;28;20044;-72
2021/01/16 04:08:42;;;;;;;45.08;17.73;;;;;;;0.74;100.00;102363.63;5056940;28;20039;-72
2021/01/16 04:11:09;;;;;;;35.88;16.02;;;;;;;0.75;100.00;102365.38;5079360;28;20040;-72
2021/01/16 04:13:35;;;;;;;38.63;17.20;;;;;;;0.75;100.00;102353.94;5068263;28;20078;-72
2021/01/16 04:16:02;;;;;;;40.58;16.50;;;;;;;0.74;100.00;102353.03;5072694;28;20036;-73
2021/01/16 04:18:27;;;;;;;41.00;17.95;;;;;;;0.75;100.00;102354.81;5067399;28;20041;-72
2021/01/16 04:20:52;;;;;;;37.75;17.33;;;;;;;0.73;100.00;102351.31;5066824;28;20162;-72
2021/01/16 04:23:18;;;;;;;35.65;16.67;;;;;;;0.78;100.00;102354.84;5067176;28;20032;-72
2021/01/16 04:25:43;;;;;;;38.30;17.33;;;;;;;0.75;100.00;102353.94;5064970;28;20036;-72
2021/01/16 04:28:09;;;;;;;38.28;17.45;;;;;;;0.78;100.00;102348.66;5063584;28;20043;-72
2021/01/16 04:30:34;;;;;;;36.22;17.67;;;;;;;0.79;100.00;102342.50;5069603;28;20036;-72
2021/01/16 04:33:00;;;;;;;36.75;16.52;;;;;;;0.76;100.00;102340.72;5071879;28;20028;-72
2021/01/16 04:35:27;;;;;;;36.38;16.65;;;;;;;0.85;100.00;102336.34;5062947;28;20032;-72
2021/01/16 04:37:52;;;;;;;35.72;17.30;;;;;;;0.87;100.00;102342.50;5058531;28;20033;-72
2021/01/16 04:40:18;;;;;;;38.78;17.58;;;;;;;0.81;100.00;102338.97;5061906;28;20032;-72
2021/01/16 04:42:44;;;;;;;39.63;18.40;;;;;;;0.80;100.00;102331.06;5075187;28;20470;-72
2021/01/16 04:45:14;;;;;;;40.25;18.00;;;;;;;0.78;100.00;102338.97;5067899;28;20107;-72
2021/01/16 04:47:48;;;;;;;39.65;17.05;;;;;;;0.76;100.00;102338.06;5065908;28;20036;-72
2021/01/16 04:50:18;;;;;;;40.33;17.17;;;;;;;0.78;100.00;102327.50;5067332;28;20071;-72
2021/01/16 04:52:45;;;;;;;39.83;17.85;;;;;;;0.79;99.90;102324.88;5061988;28;20731;-72
2021/01/16 04:55:13;;;;;;;40.53;18.00;;;;;;;0.80;99.40;102321.34;5059479;28;20036;-72
2021/01/16 04:57:40;;;;;;;43.15;18.92;;;;;;;0.82;99.15;102324.00;5069685;28;20035;-72
2021/01/16 05:00:11;;;;;;;42.63;18.35;;;;;;;0.80;99.18;102326.63;5068446;28;20391;-72
2021/01/16 05:02:39;;;;;;;43.10;19.38;;;;;;;0.80;99.25;102321.34;5066609;28;20671;-72
2021/01/16 05:05:10;;;;;;;43.10;18.75;;;;;;;0.79;99.30;102329.28;5061061;28;20219;-72
2021/01/16 05:07:36;;;;;;;41.10;18.25;;;;;;;0.81;99.46;102322.22;5084034;28;20038;-72
2021/01/16 05:10:05;;;;;;;40.70;18.70;;;;;;;0.80;99.47;102321.34;5060726;28;20035;-72
2021/01/16 05:12:30;;;;;;;39.47;18.20;;;;;;;0.82;99.47;102319.59;5062877;28;20090;-72
2021/01/16 05:14:58;;;;;;;43.85;18.85;;;;;;;0.82;99.19;102313.41;5061691;28;20032;-73
2021/01/16 05:17:25;;;;;;;44.15;19.33;;;;;;;0.82;99.09;102303.72;5061664;28;20036;-72
2021/01/16 05:19:51;;;;;;;49.65;20.88;;;;;;;0.98;97.84;102309.03;5065382;28;20032;-72
2021/01/16 05:22:18;;;;;;;49.38;19.67;;;;;;;0.97;97.73;102302.88;5064544;28;20036;-72
2021/01/16 05:24:43;;;;;;;49.72;20.70;;;;;;;0.92;98.16;102307.28;5068495;28;20056;-72
2021/01/16 05:27:08;;;;;;;46.63;20.48;;;;;;;0.93;98.07;102300.19;5064870;28;20072;-73
2021/01/16 05:29:35;;;;;;;46.70;21.77;;;;;;;0.88;98.54;102297.56;5069289;28;20078;-72
2021/01/16 05:32:04;;;;;;;50.45;21.98;;;;;;;0.90;98.57;102300.22;5066865;28;20094;-72
2021/01/16 05:34:32;;;;;;;50.90;21.92;;;;;;;0.93;98.52;102300.19;5071666;28;20029;-72
2021/01/16 05:36:58;;;;;;;50.95;22.13;;;;;;;1.02;98.38;102290.53;5072971;28;20036;-72
2021/01/16 05:39:28;;;;;;;53.60;22.00;;;;;;;0.94;98.37;102283.47;5065946;28;20028;-72
2021/01/16 05:41:56;;;;;;;51.97;21.73;;;;;;;0.93;98.66;102273.75;5064235;28;20043;-72
2021/01/16 05:44:24;;;;;;;54.80;22.55;;;;;;;0.88;98.46;102271.13;5066390;28;20454;-72
2021/01/16 05:46:50;;;;;;;54.10;23.65;;;;;;;0.89;98.59;102272.88;5066018;28;20033;-72
2021/01/16 05:49:16;;;;;;;52.60;23.00;;;;;;;0.89;98.70;102272.00;5070482;28;20039;-72
2021/01/16 05:51:45;;;;;;;52.03;22.35;;;;;;;0.88;99.07;102271.13;5065365;28;20652;-72
2021/01/16 05:54:14;;;;;;;48.30;23.75;;;;;;;0.91;99.12;102264.97;5072167;28;20140;-72
2021/01/16 05:56:41;;;;;;;54.17;22.38;;;;;;;0.95;98.90;102261.44;5074669;28;20878;-72
2021/01/16 05:59:11;;;;;;;46.83;22.45;;;;;;;0.92;98.98;102261.44;5057990;28;20487;-72
2021/01/16 06:01:38;;;;;;;55.08;24.58;;;;;;;0.90;99.09;102258.78;5065373;28;20032;-72
2021/01/16 06:04:04;;;;;;;53.63;24.08;;;;;;;0.94;99.06;102254.38;5080197;28;20042;-72
2021/01/16 06:06:34;;;;;;;49.38;23.25;;;;;;;0.93;99.02;102252.59;5065319;28;20483;-72
2021/01/16 06:09:00;;;;;;;55.10;23.33;;;;;;;0.93;99.04;102255.25;5060956;28;20029;-72
2021/01/16 06:11:36;;;;;;;50.58;23.35;;;;;;;0.93;98.86;102249.97;5099956;28;20036;-72
2021/01/16 06:14:04;;;;;;;52.55;23.13;;;;;;;0.92;98.83;102253.53;5040750;28;20044;-72
2021/01/16 06:16:34;;;;;;;53.92;22.30;;;;;;;0.93;98.25;102247.31;5061990;28;20040;-72
2021/01/16 06:19:03;;;;;;;45.22;21.85;;;;;;;0.94;97.77;102246.44;5058335;28;20036;-72
2021/01/16 06:21:30;;;;;;;62.80;26.92;;;;;;;0.93;98.23;102252.59;5062667;28;20078;-72
2021/01/16 06:24:00;;;;;;;50.50;22.83;;;;;;;0.93;98.43;102252.59;5065766;28;20036;-72
2021/01/16 06:26:28;;;;;;;49.15;22.70;;;;;;;0.90;97.94;102242.06;5054578;28;20093;-72
2021/01/16 06:28:59;;;;;;;46.15;20.75;;;;;;;1.11;97.24;102249.97;5075869;28;20025;-72
2021/01/16 06:31:29;;;;;;;42.85;20.13;;;;;;;1.02;96.21;102242.03;5068049;28;20047;-72
2021/01/16 06:33:57;;;;;;;41.72;18.63;;;;;;;1.06;95.39;102238.50;5061066;28;20033;-72
2021/01/16 06:36:53;;;;;;;42.10;19.63;;;;;;;1.05;95.92;102239.41;5078146;28;20436;-72
2021/01/16 06:39:23;;;;;;;50.08;20.95;;;;;;;1.00;96.25;102238.50;5059773;28;20157;-72
2021/01/16 06:41:53;;;;;;;51.35;23.63;;;;;;;0.98;96.56;102240.28;5061276;28;20037;-72
2021/01/16 06:44:19;;;;;;;54.83;20.88;;;;;;;1.12;96.32;102239.38;5081010;28;20042;-72
2021/01/16 06:46:46;;;;;;;49.65;20.67;;;;;;;1.07;96.26;102238.50;5075920;28;20115;-72
2021/01/16 06:49:22;;;;;;;46.53;21.73;;;;;;;1.17;96.24;102242.03;5066438;28;20046;-72
2021/01/16 06:51:52;;;;;;;58.03;26.17;;;;;;;1.03;96.37;102243.81;5058895;28;20512;-72
2021/01/16 06:54:41;;;;;;;80.90;36.33;;;;;;;1.09;97.15;102249.09;5062347;28;20047;-72
2021/01/16 06:57:13;;;;;;;63.58;29.58;;;;;;;1.06;97.17;102246.44;5061938;28;20048;-72
2021/01/16 06:59:43;;;;;;;50.33;25.23;;;;;;;1.04;97.44;102242.94;5063857;28;20032;-72
2021/01/16 07:02:32;;;;;;;50.55;21.17;;;;;;;1.07;96.63;102240.28;5066172;28;20037;-72
2021/01/16 07:05:00;;;;;;;44.53;19.75;;;;;;;1.01;96.58;102240.28;5065801;28;20168;-72
2021/01/16 07:07:37;;;;;;;41.42;20.02;;;;;;;1.04;96.55;102246.47;5073188;28;20439;-72
2021/01/16 07:10:10;;;;;;;52.38;20.15;;;;;;;1.02;97.00;102242.03;5057150;28;20468;-71
2021/01/16 07:12:37;;;;;;;;;;;;;;;1.09;96.56;102238.50;5053485;28;20495;-72
2021/01/16 07:15:04;;;;;;;49.58;19.40;;;;;;;0.99;96.95;102232.34;5080699;28;19920;-72
2021/01/16 07:17:31;;;;;;;42.53;19.40;;;;;;;1.02;97.19;102228.81;5071353;28;20040;-72
2021/01/16 07:19:58;;;;;;;43.67;19.05;;;;;;;1.01;96.81;102235.00;5068590;28;20037;-72
2021/01/16 07:22:27;;;;;;;45.15;20.67;;;;;;;1.00;97.18;102222.66;5060218;28;20441;-72
2021/01/16 07:24:54;;;;;;;40.40;19.90;;;;;;;0.97;97.25;102222.66;5058651;28;20029;-72
2021/01/16 07:27:20;;;;;;;51.70;21.92;;;;;;;0.96;97.73;102226.19;5064839;28;20384;-72
2021/01/16 07:29:45;;;;;;;45.95;19.92;;;;;;;0.96;97.45;102211.22;5073950;28;20039;-72
2021/01/16 07:32:15;;;;;;;43.05;18.65;;;;;;;0.97;97.53;102222.66;5067977;28;20040;-73
2021/01/16 07:34:49;;;;;;;43.83;19.65;;;;;;;0.97;98.05;102223.56;5061833;28;20029;-73
2021/01/16 07:37:19;;;;;;;45.90;20.65;;;;;;;0.99;97.82;102219.13;5074005;28;20619;-72
2021/01/16 07:39:45;;;;;;;44.20;20.92;;;;;;;1.05;97.54;102220.91;5075709;28;20029;-72
2021/01/16 07:42:14;;;;;;;52.40;21.77;;;;;;;1.10;97.03;102211.19;5070267;28;20035;-72
2021/01/16 07:44:46;;;;;;;46.63;21.13;;;;;;;1.22;96.68;102213.81;5068889;28;20119;-72
2021/01/16 07:47:22;;;;;;;46.35;21.85;;;;;;;1.14;97.17;102210.28;5076856;28;20043;-72
2021/01/16 07:49:53;;;;;;;50.05;22.55;;;;;;;1.30;96.36;102201.44;5071410;28;20028;-72
2021/01/16 07:52:22;;;;;;;51.47;22.42;;;;;;;1.19;96.66;102198.81;5075891;28;20028;-72
2021/01/16 07:55:02;;;;;;;49.05;22.27;;;;;;;1.13;97.31;102190.03;5091982;28;20032;-72
2021/01/16 07:57:30;;;;;;;56.05;24.48;;;;;;;1.10;97.85;102187.41;5070898;28;20039;-72
2021/01/16 07:59:56;;;;;;;47.08;21.83;;;;;;;1.08;97.82;102189.16;5079142;28;20066;-72
2021/01/16 08:02:24;;;;;;;53.03;24.08;;;;;;;1.16;97.26;102193.56;5063144;28;20719;-72
2021/01/16 08:05:07;;;;;;;50.50;23.50;;;;;;;1.16;97.77;102187.38;5076451;28;20054;-72
2021/01/16 08:07:57;;;;;;;51.35;23.35;;;;;;;1.14;98.06;102189.13;5090710;28;20042;-72
2021/01/16 08:10:25;;;;;;;50.88;23.05;;;;;;;1.15;98.25;102190.91;5071772;28;20067;-72
2021/01/16 08:12:56;;;;;;;54.70;23.77;;;;;;;1.11;98.27;102190.00;5073238;28;20032;-72
2021/01/16 08:15:29;;;;;;;56.45;26.65;;;;;;;1.19;98.42;102188.25;5066577;28;20029;-72
2021/01/16 08:17:55;;;;;;;54.67;23.58;;;;;;;1.15;98.53;102185.63;5077323;28;20122;-72
2021/01/16 08:20:27;;;;;;;51.72;22.88;;;;;;;1.17;98.50;102176.78;5067800;28;20032;-72
2021/01/16 08:22:55;;;;;;;;;;;;;;;1.27;97.97;102175.00;5072360;28;20031;-72
2021/01/16 08:25:24;;;;;;;154.23;45.50;;;;;;;1.36;97.69;102176.75;5078476;28;20379;-72
2021/01/16 08:27:55;;;;;;;137.75;41.55;;;;;;;1.21;98.12;102178.53;5075044;28;20028;-72
2021/01/16 08:30:23;;;;;;;73.63;28.30;;;;;;;1.35;98.23;102173.22;5071921;28;20028;-72
2021/01/16 08:32:59;;;;;;;59.38;25.23;;;;;;;1.31;98.00;102171.44;5077735;28;20183;-72
2021/01/16 08:35:37;;;;;;;54.22;22.42;;;;;;;1.30;97.40;102174.97;5076322;28;20020;-72
2021/01/16 08:38:18;;;;;;;46.05;21.30;;;;;;;1.26;97.40;102173.25;5076553;28;20680;-72
2021/01/16 08:40:50;;;;;;;50.58;22.48;;;;;;;1.32;97.80;102162.63;5064831;28;20127;-72
2021/01/16 08:43:31;;;;;;;47.40;22.00;;;;;;;1.52;96.01;102166.09;5064829;28;20067;-72
2021/01/16 08:46:06;;;;;;;49.78;21.88;;;;;;;1.45;94.33;102163.47;5063198;28;20291;-72
2021/01/16 08:48:32;;;;;;;45.88;21.73;;;;;;;1.41;95.14;102162.63;5063842;28;20039;-72
2021/01/16 08:50:57;;;;;;;42.22;19.35;;;;;;;1.45;95.07;102147.59;5070078;28;20047;-72
2021/01/16 08:53:23;;;;;;;45.33;19.92;;;;;;;1.37;95.25;102158.22;5065742;28;20036;-72
2021/01/16 08:55:48;;;;;;;46.40;20.80;;;;;;;1.33;95.99;102147.66;5059511;28;20042;-72
2021/01/16 08:58:13;;;;;;;55.33;22.20;;;;;;;1.37;96.27;102159.97;5063357;28;20044;-72
2021/01/16 09:00:40;;;;;;;49.13;21.20;;;;;;;1.38;95.57;102146.75;5075990;28;20032;-72
2021/01/16 09:03:17;;;;;;;48.65;22.02;;;;;;;1.44;95.18;102151.13;5080257;28;20107;-72
2021/01/16 09:05:45;;;;;;;50.13;21.48;;;;;;;1.47;94.79;102152.00;5061239;28;20037;-71
2021/01/16 09:08:22;;;;;;;50.60;20.17;;;;;;;1.44;94.26;102146.72;5069009;28;20111;-72
2021/01/16 09:10:48;;;;;;;43.20;19.92;;;;;;;1.59;93.63;102146.66;5066610;28;20028;-72
2021/01/16 09:13:24;;;;;;;43.05;19.65;;;;;;;1.61;92.84;102150.16;5061477;28;20048;-72
2021/01/16 09:15:49;;;;;;;44.83;19.80;;;;;;;1.56;92.85;102146.66;5068910;28;20028;-72
2021/01/16 09:18:15;;;;;;;48.20;21.05;;;;;;;1.51;93.68;102143.16;5073561;28;20156;-72
2021/01/16 09:20:43;;;;;;;40.05;19.48;;;;;;;1.51;94.26;102148.47;5068949;28;20032;-72
2021/01/16 09:23:37;;;;;;;52.35;20.70;;;;;;;1.61;93.09;102144.88;5061393;28;20043;-72
2021/01/16 09:26:03;;;;;;;46.47;19.92;;;;;;;1.73;92.99;102149.22;5066040;28;20123;-72
2021/01/16 09:29:00;;;;;;;45.72;19.33;;;;;;;1.65;92.95;102136.94;5066971;28;20473;-72
2021/01/16 09:31:39;;;;;;;48.33;21.85;;;;;;;1.73;91.73;102137.78;5080206;28;20130;-72
2021/01/16 09:34:17;;;;;;;49.60;22.70;;;;;;;1.66;91.85;102141.34;5074319;28;20097;-72
2021/01/16 09:36:58;;;;;;;53.45;23.27;;;;;;;1.60;93.01;102135.16;5078115;28;20032;-72
2021/01/16 09:39:29;;;;;;;44.13;19.90;;;;;;;1.66;93.38;102125.47;5053116;28;20440;-72
2021/01/16 09:41:57;;;;;;;51.35;23.13;;;;;;;1.57;94.10;102137.84;5069611;28;20476;-72
2021/01/16 09:44:37;;;;;;;56.42;24.80;;;;;;;1.62;94.00;102140.47;5074550;28;20060;-72
2021/01/16 09:47:03;;;;;;;52.58;23.65;;;;;;;1.57;94.53;102132.56;5066868;28;20049;-72
2021/01/16 09:49:44;;;;;;;46.00;21.90;;;;;;;1.65;92.79;102132.53;5066123;28;20516;-72
2021/01/16 09:52:10;;;;;;;52.92;23.33;;;;;;;1.72;93.15;102133.38;5074500;28;20115;-73
2021/01/16 09:54:36;;;;;;;45.97;22.05;;;;;;;1.65;93.07;102136.94;5056499;28;20111;-72
2021/01/16 09:57:02;;;;;;;46.58;21.08;;;;;;;1.77;92.80;102127.16;5078083;28;20039;-72
2021/01/16 09:59:27;;;;;;;43.42;20.30;;;;;;;1.89;92.01;102134.16;5070453;28;20024;-72
2021/01/16 10:02:13;;;;;;;47.08;20.85;;;;;;;1.82;91.86;102127.13;5079331;28;20039;-72
2021/01/16 10:04:40;;;;;;;44.75;21.40;;;;;;;1.76;92.04;102133.34;5090303;28;20114;-72
2021/01/16 10:07:11;;;;;;;53.47;21.73;;;;;;;1.80;92.22;102136.84;5080547;28;20390;-72
2021/01/16 10:09:47;;;;;;;44.60;20.52;;;;;;;1.75;92.40;102128.03;5066526;28;20078;-72
2021/01/16 10:12:34;;;;;;;50.33;19.98;;;;;;;1.77;92.17;102118.34;5070189;28;20036;-72
2021/01/16 10:15:06;;;;;;;50.33;22.27;;;;;;;1.90;92.33;102114.72;5060148;28;20035;-72
2021/01/16 10:17:39;;;;;;;44.65;20.10;;;;;;;1.94;91.10;102116.44;5071701;28;20032;-72
2021/01/16 10:20:07;;;;;;;41.83;20.10;;;;;;;1.80;91.77;102113.00;5072240;28;20032;-72
2021/01/16 10:22:34;;;;;;;44.75;20.98;;;;;;;2.00;91.08;102111.13;5077078;28;20024;-72
2021/01/16 10:25:01;;;;;;;44.20;19.85;;;;;;;2.03;90.13;102111.13;5061331;28;20100;-72
2021/01/16 10:27:41;;;;;;;47.47;20.42;;;;;;;1.88;90.68;102101.50;5070024;28;20027;-72
2021/01/16 10:30:14;;;;;;;43.22;19.90;;;;;;;1.91;90.92;102105.91;5066131;28;20074;-72
2021/01/16 10:32:40;;;;;;;37.67;18.73;;;;;;;1.92;89.96;102097.03;5074933;28;20238;-72
2021/01/16 10:35:06;;;;;;;46.15;20.65;;;;;;;2.02;90.89;102096.09;5070830;28;20511;-72
2021/01/16 10:37:41;;;;;;;41.70;19.65;;;;;;;1.96;90.35;102093.50;5092020;28;20093;-72
2021/01/16 10:40:07;;;;;;;42.28;19.33;;;;;;;2.04;89.80;102096.94;5073326;28;20040;-73
2021/01/16 10:42:47;;;;;;;42.92;19.67;;;;;;;2.09;90.23;102097.81;5066308;28;20036;-72
2021/01/16 10:45:18;;;;;;;42.85;19.60;;;;;;;2.03;89.89;102084.63;5062160;28;20043;-72
2021/01/16 10:47:45;;;;;;;46.33;18.25;;;;;;;2.20;89.02;102090.66;5061592;28;20135;-72
2021/01/16 10:50:16;;;;;;;46.72;20.45;;;;;;;2.18;88.21;102080.97;5064760;28;20916;-72
2021/01/16 10:52:43;;;;;;;44.83;19.83;;;;;;;2.22;89.29;102070.31;5067502;28;20123;-72
2021/01/16 10:55:12;;;;;;;42.95;19.30;;;;;;;2.21;88.85;102078.31;5065653;28;20037;-73
2021/01/16 10:57:48;;;;;;;44.22;18.83;;;;;;;2.16;88.56;102077.47;5078444;28;20043;-72
2021/01/16 11:00:17;;;;;;;39.47;18.05;;;;;;;2.15;87.89;102068.63;5083487;28;22036;-72
2021/01/16 11:02:50;;;;;;;43.53;18.25;;;;;;;2.19;87.84;102058.88;5064131;28;20032;-72
2021/01/16 11:05:15;;;;;;;41.72;18.50;;;;;;;2.13;88.57;102061.59;5071004;28;20024;-72
2021/01/16 11:07:45;;;;;;;51.35;20.77;;;;;;;2.16;87.83;102043.88;5059837;28;20347;-72
2021/01/16 11:10:33;;;;;;;38.67;18.33;;;;;;;2.14;88.42;102040.38;5066206;28;20064;-72
2021/01/16 11:13:24;;;;;;;42.58;17.92;;;;;;;2.24;87.91;102041.16;5073936;28;20107;-72
2021/01/16 11:15:52;;;;;;;36.72;18.20;;;;;;;2.26;88.42;102028.81;5086011;28;20036;-72
2021/01/16 11:18:34;;;;;;;40.15;18.38;;;;;;;2.37;88.14;102027.81;5059753;28;20552;-72
2021/01/16 11:21:08;;;;;;;47.08;19.08;;;;;;;2.44;86.71;102018.03;5077592;28;20112;-72
2021/01/16 11:23:42;;;;;;;44.72;18.70;;;;;;;2.48;86.88;102014.44;5065752;28;20028;-72
2021/01/16 11:26:10;;;;;;;38.28;17.23;;;;;;;2.46;85.83;102018.00;5073013;28;20358;-73